createdAt,value
2018-08-10T00:01:17.315Z,20.30
2018-08-10T00:03:45.695Z,20.40
2018-08-10T00:06:14.076Z,20.30
2018-08-10T00:08:42.408Z,20.30
2018-08-10T00:11:10.808Z,20.40
2018-08-10T00:13:39.210Z,20.40
2018-08-10T00:16:07.571Z,20.40
2018-08-10T00:18:36.037Z,20.40
2018-08-10T00:21:04.424Z,20.30
2018-08-10T00:23:33.077Z,20.30
2018-08-10T00:26:01.584Z,20.20
2018-08-10T00:28:30.191Z,20.20
2018-08-10T00:30:58.611Z,20.10
2018-08-10T00:33:27.034Z,20.00
2018-08-10T00:35:55.402Z,19.90
2018-08-10T00:38:23.795Z,19.70
2018-08-10T00:40:52.187Z,19.70
2018-08-10T00:43:20.592Z,19.80
2018-08-10T00:45:48.973Z,19.70
2018-08-10T00:48:17.370Z,19.70
2018-08-10T00:50:45.745Z,19.80
2018-08-10T00:53:14.157Z,19.70
2018-08-10T00:55:42.525Z,19.50
2018-08-10T00:58:10.898Z,19.50
2018-08-10T01:00:39.270Z,19.50
2018-08-10T01:03:07.661Z,19.50
2018-08-10T01:05:36.011Z,19.60
2018-08-10T01:08:04.404Z,19.50
2018-08-10T01:10:32.815Z,19.50
2018-08-10T01:13:01.180Z,19.20
2018-08-10T01:15:29.561Z,19.20
2018-08-10T01:17:57.935Z,19.20
2018-08-10T01:20:26.278Z,19.10
2018-08-10T01:23:10.348Z,19.20
2018-08-10T01:25:38.746Z,19.10
2018-08-10T01:28:07.129Z,19.10
2018-08-10T01:30:36.085Z,19.10
2018-08-10T01:33:04.476Z,19.20
2018-08-10T01:35:32.947Z,19.20
2018-08-10T01:38:02.256Z,19.10
2018-08-10T01:40:30.691Z,19.00
2018-08-10T01:42:59.112Z,18.90
2018-08-10T01:45:27.501Z,18.80
2018-08-10T01:47:55.927Z,18.80
2018-08-10T01:50:24.273Z,18.90
2018-08-10T01:52:52.660Z,18.80
2018-08-10T01:55:21.061Z,18.80
2018-08-10T01:57:49.468Z,18.80
2018-08-10T02:00:17.889Z,18.70
2018-08-10T02:02:46.287Z,18.60
2018-08-10T02:05:15.512Z,18.60
2018-08-10T02:07:44.117Z,18.70
2018-08-10T02:10:14.289Z,18.70
2018-08-10T02:12:43.512Z,18.50
2018-08-10T02:15:15.875Z,18.60
2018-08-10T02:17:44.231Z,18.60
2018-08-10T02:20:13.946Z,18.40
2018-08-10T02:22:42.373Z,18.40
2018-08-10T02:25:12.192Z,18.40
2018-08-10T02:27:41.300Z,18.40
2018-08-10T02:30:11.359Z,18.50
2018-08-10T02:32:40.626Z,18.40
2018-08-10T02:35:09.035Z,18.30
2018-08-10T02:37:38.087Z,18.20
2018-08-10T02:40:09.464Z,18.10
2018-08-10T02:42:37.856Z,18.10
2018-08-10T02:45:06.658Z,17.90
2018-08-10T02:47:34.997Z,17.90
2018-08-10T02:50:03.473Z,17.90
2018-08-10T02:52:31.827Z,17.90
2018-08-10T02:55:00.257Z,17.80
2018-08-10T02:57:28.642Z,17.70
2018-08-10T02:59:57.089Z,17.80
2018-08-10T03:02:25.501Z,17.80
2018-08-10T03:04:53.879Z,17.70
2018-08-10T03:07:22.279Z,17.60
2018-08-10T03:09:50.664Z,17.70
2018-08-10T03:12:19.054Z,17.70
2018-08-10T03:14:47.431Z,17.70
2018-08-10T03:17:15.805Z,17.70
2018-08-10T03:19:44.178Z,17.60
2018-08-10T03:22:12.597Z,17.60
2018-08-10T03:24:40.901Z,17.50
2018-08-10T03:27:09.900Z,17.60
2018-08-10T03:29:38.245Z,17.60
2018-08-10T03:32:06.628Z,17.50
2018-08-10T03:34:35.022Z,17.30
2018-08-10T03:37:03.395Z,17.40
2018-08-10T03:39:31.769Z,17.60
2018-08-10T03:42:00.187Z,17.60
2018-08-10T03:44:28.555Z,17.70
2018-08-10T03:46:56.963Z,17.50
2018-08-10T03:49:25.302Z,17.40
2018-08-10T03:51:53.694Z,17.40
2018-08-10T03:54:22.098Z,17.50
2018-08-10T03:56:50.488Z,17.40
2018-08-10T03:59:19.794Z,17.40
2018-08-10T04:01:48.182Z,17.50
2018-08-10T04:04:16.624Z,17.40
2018-08-10T04:06:44.972Z,17.60
2018-08-10T04:09:13.490Z,17.50
2018-08-10T04:11:42.583Z,17.40
2018-08-10T04:14:10.992Z,17.30
2018-08-10T04:16:39.343Z,17.20
2018-08-10T04:19:07.760Z,17.20
2018-08-10T04:21:36.215Z,17.20
2018-08-10T04:24:04.623Z,17.00
2018-08-10T04:26:33.060Z,17.00
2018-08-10T04:29:02.021Z,17.00
2018-08-10T04:31:30.409Z,17.00
2018-08-10T04:33:58.878Z,17.00
2018-08-10T04:36:27.415Z,17.10
2018-08-10T04:38:55.847Z,17.10
2018-08-10T04:41:24.236Z,17.20
2018-08-10T04:43:52.618Z,17.20
2018-08-10T04:46:21.023Z,17.20
2018-08-10T04:48:49.416Z,17.10
2018-08-10T04:51:17.761Z,17.10
2018-08-10T04:53:46.159Z,17.00
2018-08-10T04:56:14.554Z,17.10
2018-08-10T04:58:42.861Z,17.10
2018-08-10T05:01:11.244Z,17.10
2018-08-10T05:03:39.741Z,17.00
2018-08-10T05:06:08.139Z,16.90
2018-08-10T05:08:36.530Z,16.90
2018-08-10T05:11:04.963Z,17.00
2018-08-10T05:13:33.329Z,17.00
2018-08-10T05:16:01.682Z,17.10
2018-08-10T05:18:30.090Z,17.20
2018-08-10T05:20:58.454Z,17.30
2018-08-10T05:23:26.890Z,17.30
2018-08-10T05:25:55.251Z,17.20
2018-08-10T05:28:23.540Z,17.10
2018-08-10T05:30:51.922Z,17.00
2018-08-10T05:33:20.278Z,16.90
2018-08-10T05:35:48.702Z,17.10
2018-08-10T05:38:17.050Z,17.00
2018-08-10T05:40:45.405Z,17.10
2018-08-10T05:43:13.774Z,17.50
2018-08-10T05:45:42.207Z,18.30
2018-08-10T05:48:10.632Z,19.20
2018-08-10T05:50:38.894Z,20.10
2018-08-10T05:53:07.286Z,20.60
2018-08-10T05:55:35.678Z,21.20
2018-08-10T05:58:04.082Z,21.40
2018-08-10T06:00:32.548Z,21.20
2018-08-10T06:03:00.915Z,21.30
2018-08-10T06:05:29.258Z,21.30
2018-08-10T06:07:57.642Z,21.40
2018-08-10T06:10:25.990Z,21.60
2018-08-10T06:12:54.355Z,21.90
2018-08-10T06:15:22.763Z,22.20
2018-08-10T06:17:51.134Z,22.50
2018-08-10T06:20:19.483Z,22.50
2018-08-10T06:22:47.882Z,23.10
2018-08-10T06:25:16.226Z,23.50
2018-08-10T06:27:44.711Z,23.80
2018-08-10T06:30:13.392Z,23.60
2018-08-10T06:32:41.994Z,23.60
2018-08-10T06:35:10.372Z,23.30
2018-08-10T06:37:38.731Z,23.20
2018-08-10T06:40:07.091Z,23.00
2018-08-10T06:42:35.445Z,22.70
2018-08-10T06:45:04.007Z,22.40
2018-08-10T06:47:32.230Z,23.10
2018-08-10T06:50:00.600Z,23.00
2018-08-10T06:52:28.987Z,23.60
2018-08-10T06:54:57.342Z,23.70
2018-08-10T06:57:25.699Z,24.00
2018-08-10T06:59:54.119Z,24.70
2018-08-10T07:02:22.545Z,25.60
2018-08-10T07:04:50.938Z,25.80
2018-08-10T07:07:19.394Z,25.80
2018-08-10T07:09:47.770Z,25.40
2018-08-10T07:12:16.202Z,25.00
2018-08-10T07:14:44.587Z,25.00
2018-08-10T07:17:13.016Z,25.30
2018-08-10T07:19:42.022Z,24.70
2018-08-10T07:22:12.202Z,24.40
2018-08-10T07:27:20.622Z,26.00
2018-08-10T07:29:48.958Z,25.90
2018-08-10T07:32:18.024Z,25.90
2018-08-10T07:34:46.372Z,25.80
2018-08-10T07:37:14.770Z,26.80
2018-08-10T07:39:43.104Z,26.90
2018-08-10T07:42:11.487Z,26.30
2018-08-10T07:44:39.844Z,26.20
2018-08-10T07:47:08.243Z,26.10
2018-08-10T07:49:36.595Z,26.30
2018-08-10T07:52:05.153Z,26.80
2018-08-10T07:54:33.440Z,26.30
2018-08-10T07:57:01.823Z,26.10
2018-08-10T07:59:30.240Z,26.70
2018-08-10T08:01:58.667Z,26.40
2018-08-10T08:04:27.068Z,26.20
2018-08-10T08:06:55.554Z,26.20
2018-08-10T08:09:23.977Z,25.80
2018-08-10T08:11:52.334Z,26.00
2018-08-10T08:14:20.761Z,26.60
2018-08-10T08:16:49.141Z,26.90
2018-08-10T08:19:17.551Z,27.40
2018-08-10T08:22:11.234Z,27.20
2018-08-10T08:24:40.576Z,27.10
2018-08-10T08:27:09.368Z,27.10
2018-08-10T08:29:37.750Z,26.60
2018-08-10T08:32:06.506Z,25.50
2018-08-10T08:34:34.914Z,24.50
2018-08-10T08:37:04.369Z,24.40
2018-08-10T08:39:44.691Z,24.70
2018-08-10T08:42:13.109Z,25.90
2018-08-10T08:44:51.477Z,26.50
2018-08-10T08:47:19.922Z,26.50
2018-08-10T08:49:48.295Z,25.70
2018-08-10T08:52:16.740Z,25.10
2018-08-10T08:55:10.011Z,25.40
2018-08-10T08:57:38.416Z,27.20
2018-08-10T09:00:12.777Z,26.80
2018-08-10T09:02:41.196Z,26.20
2018-08-10T09:05:10.272Z,26.60
2018-08-10T09:07:39.218Z,27.10
2018-08-10T09:10:10.954Z,26.10
2018-08-10T09:12:39.401Z,26.30
2018-08-10T09:15:09.881Z,26.10
2018-08-10T09:17:38.431Z,26.20
2018-08-10T09:20:07.689Z,26.10
2018-08-10T09:22:36.177Z,25.90
2018-08-10T09:25:07.661Z,26.10
2018-08-10T09:27:36.193Z,26.40
2018-08-10T09:30:08.356Z,25.80
2018-08-10T09:32:36.898Z,24.70
2018-08-10T09:35:06.141Z,23.90
2018-08-10T09:37:34.499Z,23.90
2018-08-10T09:40:08.680Z,24.90
2018-08-10T09:42:37.066Z,25.60
2018-08-10T09:45:06.756Z,25.60
2018-08-10T09:47:35.558Z,25.30
2018-08-10T09:50:04.545Z,26.40
2018-08-10T09:52:32.995Z,27.10
2018-08-10T09:55:19.313Z,27.10
2018-08-10T09:57:48.382Z,25.70
2018-08-10T10:00:22.229Z,25.60
2018-08-10T10:02:54.880Z,25.40
2018-08-10T10:05:25.132Z,24.90
2018-08-10T10:07:53.911Z,24.20
2018-08-10T10:10:22.800Z,23.50
2018-08-10T10:12:51.226Z,23.10
2018-08-10T10:15:19.667Z,23.70
2018-08-10T10:17:48.124Z,24.10
2018-08-10T10:20:16.885Z,24.60
2018-08-10T10:22:45.789Z,24.60
2018-08-10T10:25:14.168Z,24.20
2018-08-10T10:27:42.613Z,24.30
2018-08-10T10:30:11.030Z,24.90
2018-08-10T10:32:39.488Z,25.80
2018-08-10T10:35:07.918Z,25.90
2018-08-10T10:37:36.421Z,25.40
2018-08-10T10:40:06.163Z,25.40
2018-08-10T10:42:34.600Z,24.90
2018-08-10T10:45:03.241Z,24.20
2018-08-10T10:47:31.704Z,23.90
2018-08-10T10:50:00.083Z,24.30
2018-08-10T10:52:28.426Z,24.90
2018-08-10T10:54:56.845Z,25.50
2018-08-10T10:57:25.224Z,25.90
2018-08-10T10:59:53.579Z,25.20
2018-08-10T11:02:27.083Z,24.30
2018-08-10T11:04:55.483Z,23.80
2018-08-10T11:07:23.893Z,24.90
2018-08-10T11:09:52.522Z,26.10
2018-08-10T11:12:20.948Z,26.70
2018-08-10T11:14:49.329Z,26.70
2018-08-10T11:17:17.689Z,25.80
2018-08-10T11:19:46.042Z,25.80
2018-08-10T11:22:14.500Z,26.20
2018-08-10T11:24:42.877Z,26.20
2018-08-10T11:27:11.286Z,26.40
2018-08-10T11:29:39.672Z,26.80
2018-08-10T11:32:08.157Z,27.50
2018-08-10T11:34:36.496Z,27.80
2018-08-10T11:37:04.974Z,27.60
2018-08-10T11:39:33.401Z,27.40
2018-08-10T11:42:01.800Z,27.20
2018-08-10T11:44:32.579Z,27.20
2018-08-10T11:47:03.131Z,26.90
2018-08-10T11:49:31.510Z,27.00
2018-08-10T11:51:59.903Z,27.90
2018-08-10T11:54:28.303Z,28.40
2018-08-10T11:56:56.675Z,28.30
2018-08-10T11:59:25.098Z,27.70
2018-08-10T12:01:53.514Z,27.50
2018-08-10T12:04:21.862Z,27.40
2018-08-10T12:06:50.236Z,27.30
2018-08-10T12:09:18.643Z,26.90
2018-08-10T12:11:47.003Z,26.20
2018-08-10T12:14:15.354Z,26.60
2018-08-10T12:16:43.742Z,26.70
2018-08-10T12:19:12.293Z,27.00
2018-08-10T12:21:40.678Z,26.60
2018-08-10T12:24:09.174Z,26.10
2018-08-10T12:26:37.646Z,25.90
2018-08-10T12:29:06.106Z,25.30
2018-08-10T12:31:34.524Z,25.20
2018-08-10T12:34:03.097Z,24.60
2018-08-10T12:36:31.511Z,24.80
2018-08-10T12:38:59.996Z,25.20
2018-08-10T12:41:28.445Z,25.40
2018-08-10T12:43:56.886Z,25.60
2018-08-10T12:46:25.298Z,25.40
2018-08-10T12:48:53.682Z,24.90
2018-08-10T12:51:22.125Z,24.80
2018-08-10T12:53:50.578Z,24.90
2018-08-10T12:56:19.045Z,25.80
2018-08-10T12:58:47.411Z,26.30
2018-08-10T13:01:15.894Z,26.30
2018-08-10T13:03:44.243Z,26.30
2018-08-10T13:06:12.675Z,26.60
2018-08-10T13:08:41.294Z,26.70
2018-08-10T13:11:09.738Z,26.10
2018-08-10T13:13:38.130Z,25.50
2018-08-10T13:16:06.642Z,25.90
2018-08-10T13:18:35.028Z,26.50
2018-08-10T13:21:03.410Z,27.10
2018-08-10T13:23:31.818Z,26.80
2018-08-10T13:26:00.235Z,26.30
2018-08-10T13:28:28.640Z,25.80
2018-08-10T13:30:57.063Z,25.10
2018-08-10T13:33:25.540Z,25.20
2018-08-10T13:35:53.889Z,25.10
2018-08-10T13:38:22.334Z,25.30
2018-08-10T13:40:50.760Z,25.70
2018-08-10T13:43:19.200Z,25.70
2018-08-10T13:45:47.575Z,25.50
2018-08-10T13:48:15.979Z,25.20
2018-08-10T13:50:44.369Z,24.90
2018-08-10T13:53:12.775Z,24.70
2018-08-10T13:55:41.246Z,24.50
2018-08-10T13:58:09.632Z,24.30
2018-08-10T14:00:38.059Z,24.20
2018-08-10T14:03:06.558Z,24.20
2018-08-10T14:05:35.034Z,24.30
2018-08-10T14:08:03.418Z,24.40
2018-08-10T14:10:31.850Z,24.40
2018-08-10T14:13:00.223Z,24.30
2018-08-10T14:15:28.633Z,24.30
2018-08-10T14:17:57.003Z,24.20
2018-08-10T14:20:25.418Z,24.20
2018-08-10T14:22:53.817Z,24.30
2018-08-10T14:25:22.378Z,25.00
2018-08-10T14:27:50.851Z,25.80
2018-08-10T14:30:19.214Z,26.30
2018-08-10T14:32:47.580Z,26.80
2018-08-10T14:35:16.045Z,26.70
2018-08-10T14:37:44.483Z,26.40
2018-08-10T14:40:13.466Z,26.10
2018-08-10T14:42:41.933Z,26.00
2018-08-10T14:45:14.597Z,26.10
2018-08-10T14:47:42.982Z,26.60
2018-08-10T14:50:13.081Z,26.90
2018-08-10T14:52:41.664Z,27.10
2018-08-10T14:55:14.142Z,26.50
2018-08-10T14:57:42.621Z,26.20
2018-08-10T15:00:15.643Z,26.20
2018-08-10T15:02:44.395Z,26.20
2018-08-10T15:05:12.800Z,26.30
2018-08-10T15:07:41.205Z,26.40
2018-08-10T15:10:11.445Z,26.30
2018-08-10T15:12:40.159Z,26.60
2018-08-10T15:15:10.900Z,26.70
2018-08-10T15:17:39.301Z,26.50
2018-08-10T15:20:09.347Z,26.30
2018-08-10T15:22:37.726Z,25.90
2018-08-10T15:25:07.068Z,25.90
2018-08-10T15:27:35.442Z,26.00
2018-08-10T15:30:04.563Z,26.20
2018-08-10T15:32:32.972Z,25.90
2018-08-10T15:35:01.327Z,25.80
2018-08-10T15:37:29.724Z,25.70
2018-08-10T15:39:58.103Z,25.50
2018-08-10T15:42:26.546Z,25.30
2018-08-10T15:44:54.929Z,25.30
2018-08-10T15:47:23.345Z,25.50
2018-08-10T15:49:51.733Z,25.40
2018-08-10T15:52:20.103Z,25.60
2018-08-10T15:54:48.486Z,25.40
2018-08-10T15:57:17.045Z,25.50
2018-08-10T15:59:45.727Z,25.40
2018-08-10T16:02:14.352Z,25.40
2018-08-10T16:04:42.871Z,25.20
2018-08-10T16:07:11.474Z,25.00
2018-08-10T16:09:39.926Z,25.10
2018-08-10T16:12:08.361Z,25.10
2018-08-10T16:14:36.853Z,25.00
2018-08-10T16:17:05.382Z,25.20
2018-08-10T16:19:35.737Z,25.40
2018-08-10T16:22:04.743Z,25.10
2018-08-10T16:24:33.190Z,24.90
2018-08-10T16:27:01.671Z,25.00
2018-08-10T16:29:30.107Z,24.90
2018-08-10T16:31:58.559Z,24.90
2018-08-10T16:34:27.015Z,24.70
2018-08-10T16:36:55.498Z,24.50
2018-08-10T16:39:24.018Z,24.40
2018-08-10T16:41:52.619Z,24.40
2018-08-10T16:44:21.081Z,24.30
2018-08-10T16:46:49.533Z,24.20
2018-08-10T16:49:18.020Z,24.20
2018-08-10T16:51:46.530Z,24.10
2018-08-10T16:54:14.947Z,24.20
2018-08-10T16:56:43.405Z,24.40
2018-08-10T16:59:12.144Z,24.40
2018-08-10T17:01:40.575Z,24.40
2018-08-10T17:04:09.304Z,24.50
2018-08-10T17:06:37.747Z,24.50
2018-08-10T17:09:07.983Z,24.40
2018-08-10T17:11:36.415Z,24.20
2018-08-10T17:14:04.824Z,24.20
2018-08-10T17:16:33.293Z,24.20
2018-08-10T17:19:02.278Z,24.10
2018-08-10T17:21:30.746Z,24.10
2018-08-10T17:23:59.211Z,24.00
2018-08-10T17:26:27.718Z,23.90
2018-08-10T17:28:56.107Z,23.80
2018-08-10T17:31:24.574Z,23.80
2018-08-10T17:33:53.070Z,23.80
2018-08-10T17:36:21.517Z,23.80
2018-08-10T17:38:49.926Z,23.80
2018-08-10T17:41:19.151Z,23.80
2018-08-10T17:43:47.745Z,23.80
2018-08-10T17:46:16.270Z,23.70
2018-08-10T17:48:44.755Z,23.70
2018-08-10T17:51:13.158Z,23.60
2018-08-10T17:53:41.632Z,23.60
2018-08-10T17:56:10.192Z,23.60
2018-08-10T17:58:38.585Z,23.50
2018-08-10T18:01:07.097Z,23.40
2018-08-10T18:03:35.622Z,23.40
2018-08-10T18:06:04.077Z,23.40
2018-08-10T18:08:32.616Z,23.30
2018-08-10T18:11:01.146Z,23.40
2018-08-10T18:13:29.534Z,23.30
2018-08-10T18:15:57.998Z,23.30
2018-08-10T18:18:26.405Z,23.20
2018-08-10T18:20:54.884Z,23.20
2018-08-10T18:23:23.277Z,23.10
2018-08-10T18:25:51.627Z,23.10
2018-08-10T18:28:20.251Z,23.00
2018-08-10T18:30:48.639Z,22.90
2018-08-10T18:33:17.102Z,22.90
2018-08-10T18:35:45.856Z,22.90
2018-08-10T18:38:14.399Z,22.90
2018-08-10T18:40:42.898Z,22.90
2018-08-10T18:43:11.481Z,22.90
2018-08-10T18:45:40.059Z,22.80
2018-08-10T18:48:08.511Z,22.80
2018-08-10T18:50:37.174Z,22.70
2018-08-10T18:53:05.616Z,22.70
2018-08-10T18:55:34.066Z,22.70
2018-08-10T18:58:02.625Z,22.70
2018-08-10T19:00:31.061Z,22.60
2018-08-10T19:02:59.593Z,22.60
2018-08-10T19:05:28.007Z,22.60
2018-08-10T19:07:56.436Z,22.50
2018-08-10T19:10:26.318Z,22.40
2018-08-10T19:12:54.833Z,22.50
2018-08-10T19:15:23.269Z,22.40
2018-08-10T19:17:51.848Z,22.30
2018-08-10T19:20:20.510Z,22.40
2018-08-10T19:22:48.939Z,22.40
2018-08-10T19:25:17.892Z,22.40
2018-08-10T19:27:46.311Z,22.50
2018-08-10T19:30:18.210Z,22.40
2018-08-10T19:32:47.405Z,22.40
2018-08-10T19:35:17.045Z,22.40
2018-08-10T19:37:45.474Z,22.30
2018-08-10T19:40:15.089Z,22.30
2018-08-10T19:42:43.666Z,22.40
2018-08-10T19:45:13.674Z,22.30
2018-08-10T19:47:42.157Z,22.30
2018-08-10T19:50:12.175Z,22.30
2018-08-10T19:52:40.873Z,22.30
2018-08-10T19:55:10.884Z,22.10
2018-08-10T19:57:39.646Z,22.10
2018-08-10T20:00:09.993Z,22.10
2018-08-10T20:02:38.518Z,22.10
2018-08-10T20:05:08.350Z,22.00
2018-08-10T20:07:36.820Z,22.00
2018-08-10T20:10:06.314Z,22.00
2018-08-10T20:12:34.999Z,22.00
2018-08-10T20:15:05.724Z,21.90
2018-08-10T20:17:34.253Z,21.90
2018-08-10T20:20:02.744Z,21.80
2018-08-10T20:22:31.235Z,21.80
2018-08-10T20:24:59.751Z,21.80
2018-08-10T20:27:28.282Z,21.70
2018-08-10T20:29:57.454Z,21.80
2018-08-10T20:32:25.898Z,21.80
2018-08-10T20:34:54.386Z,21.70
2018-08-10T20:37:22.953Z,21.70
2018-08-10T20:39:51.409Z,21.60
2018-08-10T20:42:20.020Z,21.60
2018-08-10T20:44:49.235Z,21.60
2018-08-10T20:47:17.741Z,21.60
2018-08-10T20:49:46.268Z,21.50
2018-08-10T20:52:14.854Z,21.40
2018-08-10T20:54:43.325Z,21.40
2018-08-10T20:57:11.825Z,21.40
2018-08-10T20:59:40.429Z,21.30
2018-08-10T21:02:09.215Z,21.30
2018-08-10T21:04:37.984Z,21.10
2018-08-10T21:07:06.551Z,21.00
2018-08-10T21:09:35.052Z,21.00
2018-08-10T21:12:03.541Z,20.90
2018-08-10T21:14:31.999Z,20.90
2018-08-10T21:17:00.428Z,20.90
2018-08-10T21:19:28.997Z,20.90
2018-08-10T21:21:57.592Z,20.90
2018-08-10T21:24:26.145Z,20.90
2018-08-10T21:26:54.626Z,20.90
2018-08-10T21:29:23.050Z,20.90
2018-08-10T21:31:51.495Z,21.00
2018-08-10T21:34:20.028Z,20.90
2018-08-10T21:36:48.455Z,20.90
2018-08-10T21:39:16.989Z,20.80
2018-08-10T21:41:45.556Z,20.80
2018-08-10T21:44:14.053Z,20.80
2018-08-10T21:46:42.663Z,20.80
2018-08-10T21:49:11.207Z,20.70
2018-08-10T21:51:39.722Z,20.70
2018-08-10T21:54:08.231Z,20.70
2018-08-10T21:56:36.740Z,20.70
2018-08-10T21:59:05.238Z,20.70
2018-08-10T22:01:33.821Z,20.70
2018-08-10T22:04:03.595Z,20.60
2018-08-10T22:06:32.805Z,20.60
2018-08-10T22:09:01.435Z,20.60
2018-08-10T22:11:29.822Z,20.70
2018-08-10T22:14:03.651Z,20.60
2018-08-10T22:16:37.329Z,20.70
2018-08-10T22:19:11.362Z,20.80
2018-08-10T22:21:39.990Z,20.80
2018-08-10T22:24:08.529Z,20.70
2018-08-10T22:26:37.079Z,20.90
2018-08-10T22:29:05.637Z,20.80
2018-08-10T22:31:34.128Z,20.90
2018-08-10T22:34:02.751Z,20.80
2018-08-10T22:36:31.232Z,20.80
2018-08-10T22:38:59.719Z,20.80
2018-08-10T22:41:28.193Z,20.70
2018-08-10T22:43:56.686Z,20.70
2018-08-10T22:46:25.172Z,20.70
2018-08-10T22:48:53.720Z,20.70
2018-08-10T22:51:22.175Z,20.50
2018-08-10T22:53:50.757Z,20.50
2018-08-10T22:56:19.266Z,20.40
2018-08-10T22:58:47.708Z,20.40
2018-08-10T23:01:16.186Z,20.50
2018-08-10T23:03:44.641Z,20.40
2018-08-10T23:06:13.119Z,20.50
2018-08-10T23:08:41.736Z,20.50
2018-08-10T23:11:14.022Z,20.40
2018-08-10T23:13:42.406Z,20.30
2018-08-10T23:16:10.821Z,20.20
2018-08-10T23:18:39.239Z,20.10
2018-08-10T23:21:07.818Z,20.00
2018-08-10T23:23:36.247Z,20.10
2018-08-10T23:26:04.811Z,20.00
2018-08-10T23:28:33.241Z,20.00
2018-08-10T23:31:01.689Z,19.90
2018-08-10T23:33:30.158Z,20.00
2018-08-10T23:35:58.574Z,19.80
2018-08-10T23:38:27.083Z,19.80
2018-08-10T23:40:55.630Z,19.70
2018-08-10T23:43:24.155Z,19.60
2018-08-10T23:45:52.523Z,19.50
2018-08-10T23:48:20.959Z,19.40
2018-08-10T23:50:49.393Z,19.40
2018-08-10T23:53:17.868Z,19.30
2018-08-10T23:55:46.310Z,19.30
2018-08-10T23:58:14.915Z,19.20
